Impacts METAR Board INFO
IDs:

KSEA - Seattle-Tacoma Intl, WA, US

Updated at: 2231 UTC 13 Dec 2017
Potential Impact None Slight Moderate High
Time13/10Z 13/11Z 13/12Z 13/13Z 13/14Z 13/15Z 13/16Z 13/17Z 13/18Z 13/19Z 13/20Z 13/21Z 13/22Z
VIS10 9 10 10 10 10 10 10 10 10 10 10 10
CIG-- -- -- -- -- -- -- -- -- -- 250 250 250
CoverFEWFEWFEWFEWCLRFEWFEWSCTSCTSCTBKNBKNBKN
FltCatVFRVFRVFRVFRVFRVFRVFRVFRVFRVFRVFRVFRVFR
WX--------------------------
WDir03305070360503600360103602020
WSpd0 6 7 7 7 8 4 4 7 8 10 16 12
WGst-- -- -- -- -- -- -- -- -- -- -- -- --
Raw hourly METARs
KSEA 130953Z 00000KT 10SM FEW110 03/02 A3040 RMK AO2 SLP303 T00330017
KSEA 131053Z 33006KT 9SM FEW110 02/01 A3041 RMK AO2 SLP306 T00220006
KSEA 131153Z 05007KT 10SM FEW002 03/02 A3041 RMK AO2 SLP306 T00280017 10061 20017 56003
KSEA 131253Z 07007KT 10SM FEW110 03/01 A3040 RMK AO2 SLP303 T00330006
KSEA 131353Z 36007KT 10SM CLR 02/00 A3041 RMK AO2 SLP306 T00220000
KSEA 131453Z 05008KT 10SM FEW200 03/00 A3040 RMK AO2 SLP304 T00280000 56002
KSEA 131553Z 36004KT 10SM FEW200 02/M01 A3042 RMK AO2 SLP311 T00221006
KSEA 131653Z VRB04KT 10SM FEW007 SCT250 04/01 A3043 RMK AO2 SLP315 T00440006
KSEA 131753Z 36007KT 10SM FEW015 SCT250 06/01 A3043 RMK AO2 SLP313 T00560011 10061 20011 50010
KSEA 131853Z 01008KT 10SM SCT250 07/03 A3040 RMK AO2 SLP304 T00670028
KSEA 131953Z 36010KT 10SM BKN250 08/04 A3040 RMK AO2 SLP304 T00830039
KSEA 132053Z 02016KT 10SM BKN250 08/03 A3038 RMK AO2 SLP295 T00830033 57018
KSEA 132153Z 02012KT 10SM FEW150 BKN250 09/03 A3037 RMK AO2 SLP291 T00890028